sensor_id;sensor_type;location;lat;lon;timestamp;temperature;humidity
53599;DHT22;39485;45.702;11.364;2023-06-22T00:02:13;23.60;99.90
53599;DHT22;39485;45.702;11.364;2023-06-22T00:04:39;23.60;99.90
53599;DHT22;39485;45.702;11.364;2023-06-22T00:07:05;23.60;99.90
53599;DHT22;39485;45.702;11.364;2023-06-22T00:09:31;23.60;99.90
53599;DHT22;39485;45.702;11.364;2023-06-22T00:11:58;23.60;99.90
53599;DHT22;39485;45.702;11.364;2023-06-22T00:14:23;23.50;99.90
53599;DHT22;39485;45.702;11.364;2023-06-22T00:16:49;23.50;99.90
53599;DHT22;39485;45.702;11.364;2023-06-22T00:19:15;23.50;99.90
53599;DHT22;39485;45.702;11.364;2023-06-22T00:21:41;23.50;99.90
53599;DHT22;39485;45.702;11.364;2023-06-22T00:24:08;23.50;99.90
53599;DHT22;39485;45.702;11.364;2023-06-22T00:26:34;23.40;99.90
53599;DHT22;39485;45.702;11.364;2023-06-22T00:28:59;23.50;99.90
53599;DHT22;39485;45.702;11.364;2023-06-22T00:31:25;23.40;99.90
53599;DHT22;39485;45.702;11.364;2023-06-22T00:33:51;23.50;99.90
53599;DHT22;39485;45.702;11.364;2023-06-22T00:36:16;23.40;99.90
53599;DHT22;39485;45.702;11.364;2023-06-22T00:38:43;23.40;99.90
53599;DHT22;39485;45.702;11.364;2023-06-22T00:41:09;23.40;99.90
53599;DHT22;39485;45.702;11.364;2023-06-22T00:43:35;23.40;99.90
53599;DHT22;39485;45.702;11.364;2023-06-22T00:46:00;23.40;99.90
53599;DHT22;39485;45.702;11.364;2023-06-22T00:48:26;23.40;99.90
53599;DHT22;39485;45.702;11.364;2023-06-22T00:50:52;23.40;99.90
53599;DHT22;39485;45.702;11.364;2023-06-22T00:53:21;23.40;99.90
53599;DHT22;39485;45.702;11.364;2023-06-22T00:55:47;23.40;99.90
53599;DHT22;39485;45.702;11.364;2023-06-22T00:58:13;23.40;99.90
53599;DHT22;39485;45.702;11.364;2023-06-22T01:00:40;23.40;99.90
53599;DHT22;39485;45.702;11.364;2023-06-22T01:03:06;23.40;99.90
53599;DHT22;39485;45.702;11.364;2023-06-22T01:05:36;23.40;99.90
53599;DHT22;39485;45.702;11.364;2023-06-22T01:11:31;23.40;99.90
53599;DHT22;39485;45.702;11.364;2023-06-22T01:14:09;23.50;99.90
53599;DHT22;39485;45.702;11.364;2023-06-22T01:16:43;23.50;99.90
53599;DHT22;39485;45.702;11.364;2023-06-22T01:21:51;23.40;99.90
53599;DHT22;39485;45.702;11.364;2023-06-22T01:24:23;23.40;99.90
53599;DHT22;39485;45.702;11.364;2023-06-22T01:27:00;23.40;99.90
53599;DHT22;39485;45.702;11.364;2023-06-22T01:29:31;23.40;99.90
53599;DHT22;39485;45.702;11.364;2023-06-22T01:31:59;23.40;99.90
53599;DHT22;39485;45.702;11.364;2023-06-22T01:34:27;23.40;99.90
53599;DHT22;39485;45.702;11.364;2023-06-22T01:36:54;23.40;99.90
53599;DHT22;39485;45.702;11.364;2023-06-22T01:39:21;23.40;99.90
53599;DHT22;39485;45.702;11.364;2023-06-22T01:41:48;23.30;99.90
53599;DHT22;39485;45.702;11.364;2023-06-22T01:44:14;23.40;99.90
53599;DHT22;39485;45.702;11.364;2023-06-22T01:46:39;23.30;99.90
53599;DHT22;39485;45.702;11.364;2023-06-22T01:49:06;23.30;99.90
53599;DHT22;39485;45.702;11.364;2023-06-22T01:51:32;23.30;99.90
53599;DHT22;39485;45.702;11.364;2023-06-22T01:53:57;23.30;99.90
53599;DHT22;39485;45.702;11.364;2023-06-22T01:56:23;23.30;99.90
53599;DHT22;39485;45.702;11.364;2023-06-22T01:59:04;23.30;99.90
53599;DHT22;39485;45.702;11.364;2023-06-22T02:01:43;23.20;99.90
53599;DHT22;39485;45.702;11.364;2023-06-22T02:04:13;23.20;99.90
53599;DHT22;39485;45.702;11.364;2023-06-22T02:06:45;23.20;99.90
53599;DHT22;39485;45.702;11.364;2023-06-22T02:09:16;23.20;99.90
53599;DHT22;39485;45.702;11.364;2023-06-22T02:11:45;23.20;99.90
53599;DHT22;39485;45.702;11.364;2023-06-22T02:14:13;23.20;99.90
53599;DHT22;39485;45.702;11.364;2023-06-22T02:16:40;23.20;99.90
53599;DHT22;39485;45.702;11.364;2023-06-22T02:19:06;23.20;99.90
53599;DHT22;39485;45.702;11.364;2023-06-22T02:21:32;23.20;99.90
53599;DHT22;39485;45.702;11.364;2023-06-22T02:23:58;23.20;99.90
53599;DHT22;39485;45.702;11.364;2023-06-22T02:26:25;23.20;99.90
53599;DHT22;39485;45.702;11.364;2023-06-22T02:28:51;23.30;99.90
53599;DHT22;39485;45.702;11.364;2023-06-22T02:31:17;23.20;99.90
53599;DHT22;39485;45.702;11.364;2023-06-22T02:33:43;23.20;99.90
53599;DHT22;39485;45.702;11.364;2023-06-22T02:36:09;23.30;99.90
53599;DHT22;39485;45.702;11.364;2023-06-22T02:38:40;23.30;99.90
53599;DHT22;39485;45.702;11.364;2023-06-22T02:41:05;23.20;99.90
53599;DHT22;39485;45.702;11.364;2023-06-22T02:43:32;23.20;99.90
53599;DHT22;39485;45.702;11.364;2023-06-22T02:45:57;23.20;99.90
53599;DHT22;39485;45.702;11.364;2023-06-22T02:48:23;23.10;99.90
53599;DHT22;39485;45.702;11.364;2023-06-22T02:50:49;23.10;99.90
53599;DHT22;39485;45.702;11.364;2023-06-22T02:53:14;23.10;99.90
53599;DHT22;39485;45.702;11.364;2023-06-22T02:55:40;23.10;99.90
53599;DHT22;39485;45.702;11.364;2023-06-22T02:58:05;23.00;99.90
53599;DHT22;39485;45.702;11.364;2023-06-22T03:00:32;23.00;99.90
53599;DHT22;39485;45.702;11.364;2023-06-22T03:02:57;23.00;99.90
53599;DHT22;39485;45.702;11.364;2023-06-22T03:05:23;23.00;99.90
53599;DHT22;39485;45.702;11.364;2023-06-22T03:07:50;23.00;99.90
53599;DHT22;39485;45.702;11.364;2023-06-22T03:10:16;23.00;99.90
53599;DHT22;39485;45.702;11.364;2023-06-22T03:12:43;22.90;99.90
53599;DHT22;39485;45.702;11.364;2023-06-22T03:15:12;22.90;99.90
53599;DHT22;39485;45.702;11.364;2023-06-22T03:17:39;22.90;99.90
53599;DHT22;39485;45.702;11.364;2023-06-22T03:20:06;23.00;99.90
53599;DHT22;39485;45.702;11.364;2023-06-22T03:22:39;22.90;99.90
53599;DHT22;39485;45.702;11.364;2023-06-22T03:25:09;23.00;99.90
53599;DHT22;39485;45.702;11.364;2023-06-22T03:27:39;22.90;99.90
53599;DHT22;39485;45.702;11.364;2023-06-22T03:30:08;23.00;99.90
53599;DHT22;39485;45.702;11.364;2023-06-22T03:32:34;23.00;99.90
53599;DHT22;39485;45.702;11.364;2023-06-22T03:35:00;23.00;99.90
53599;DHT22;39485;45.702;11.364;2023-06-22T03:37:26;23.00;99.90
53599;DHT22;39485;45.702;11.364;2023-06-22T03:39:52;23.00;99.90
53599;DHT22;39485;45.702;11.364;2023-06-22T03:42:18;22.90;99.90
53599;DHT22;39485;45.702;11.364;2023-06-22T03:44:44;23.00;99.90
53599;DHT22;39485;45.702;11.364;2023-06-22T03:47:09;23.00;99.90
53599;DHT22;39485;45.702;11.364;2023-06-22T03:49:35;23.00;99.90
53599;DHT22;39485;45.702;11.364;2023-06-22T03:52:02;23.10;99.90
53599;DHT22;39485;45.702;11.364;2023-06-22T03:54:29;23.10;99.90
53599;DHT22;39485;45.702;11.364;2023-06-22T03:56:58;23.10;99.90
53599;DHT22;39485;45.702;11.364;2023-06-22T03:59:24;23.10;99.90
53599;DHT22;39485;45.702;11.364;2023-06-22T04:01:50;23.10;99.90
53599;DHT22;39485;45.702;11.364;2023-06-22T04:04:17;23.10;99.90
53599;DHT22;39485;45.702;11.364;2023-06-22T04:06:43;23.10;99.90
53599;DHT22;39485;45.702;11.364;2023-06-22T04:09:09;23.10;99.90
53599;DHT22;39485;45.702;11.364;2023-06-22T04:11:34;23.10;99.90
53599;DHT22;39485;45.702;11.364;2023-06-22T04:14:00;23.10;99.90
53599;DHT22;39485;45.702;11.364;2023-06-22T04:16:26;23.10;99.90
53599;DHT22;39485;45.702;11.364;2023-06-22T04:18:52;23.10;99.90
53599;DHT22;39485;45.702;11.364;2023-06-22T04:21:18;23.10;99.90
53599;DHT22;39485;45.702;11.364;2023-06-22T04:23:45;23.10;99.90
53599;DHT22;39485;45.702;11.364;2023-06-22T04:26:12;23.10;99.90
53599;DHT22;39485;45.702;11.364;2023-06-22T04:28:37;23.20;99.90
53599;DHT22;39485;45.702;11.364;2023-06-22T04:31:04;23.30;99.90
53599;DHT22;39485;45.702;11.364;2023-06-22T04:33:30;23.30;99.90
53599;DHT22;39485;45.702;11.364;2023-06-22T04:35:57;23.30;99.90
53599;DHT22;39485;45.702;11.364;2023-06-22T04:38:23;23.40;99.90
53599;DHT22;39485;45.702;11.364;2023-06-22T04:40:50;23.40;99.90
53599;DHT22;39485;45.702;11.364;2023-06-22T04:43:16;23.50;99.90
53599;DHT22;39485;45.702;11.364;2023-06-22T04:45:42;23.50;99.90
53599;DHT22;39485;45.702;11.364;2023-06-22T04:48:07;23.60;99.90
53599;DHT22;39485;45.702;11.364;2023-06-22T04:50:37;23.60;99.90
53599;DHT22;39485;45.702;11.364;2023-06-22T04:53:04;23.70;99.90
53599;DHT22;39485;45.702;11.364;2023-06-22T04:55:31;23.80;99.90
53599;DHT22;39485;45.702;11.364;2023-06-22T04:57:57;23.90;99.90
53599;DHT22;39485;45.702;11.364;2023-06-22T05:00:30;24.00;99.90
53599;DHT22;39485;45.702;11.364;2023-06-22T05:02:56;24.10;99.90
53599;DHT22;39485;45.702;11.364;2023-06-22T05:05:23;24.20;99.90
53599;DHT22;39485;45.702;11.364;2023-06-22T05:07:50;24.20;99.90
53599;DHT22;39485;45.702;11.364;2023-06-22T05:10:19;24.40;99.90
53599;DHT22;39485;45.702;11.364;2023-06-22T05:12:45;24.50;99.90
53599;DHT22;39485;45.702;11.364;2023-06-22T05:15:11;24.50;99.90
53599;DHT22;39485;45.702;11.364;2023-06-22T05:17:37;24.60;99.90
53599;DHT22;39485;45.702;11.364;2023-06-22T05:20:09;24.70;99.90
53599;DHT22;39485;45.702;11.364;2023-06-22T05:22:35;24.80;99.90
53599;DHT22;39485;45.702;11.364;2023-06-22T05:25:01;24.80;99.90
53599;DHT22;39485;45.702;11.364;2023-06-22T05:27:27;24.90;99.90
53599;DHT22;39485;45.702;11.364;2023-06-22T05:29:52;24.90;99.90
53599;DHT22;39485;45.702;11.364;2023-06-22T05:32:18;24.90;99.90
53599;DHT22;39485;45.702;11.364;2023-06-22T05:34:44;24.90;99.90
53599;DHT22;39485;45.702;11.364;2023-06-22T05:37:10;25.00;99.90
53599;DHT22;39485;45.702;11.364;2023-06-22T05:39:36;25.00;99.90
53599;DHT22;39485;45.702;11.364;2023-06-22T05:42:07;25.00;99.90
53599;DHT22;39485;45.702;11.364;2023-06-22T05:44:33;25.00;99.90
53599;DHT22;39485;45.702;11.364;2023-06-22T05:46:59;25.10;99.90
53599;DHT22;39485;45.702;11.364;2023-06-22T05:49:25;25.10;99.90
53599;DHT22;39485;45.702;11.364;2023-06-22T05:51:55;25.10;99.90
53599;DHT22;39485;45.702;11.364;2023-06-22T05:54:22;25.10;99.90
53599;DHT22;39485;45.702;11.364;2023-06-22T05:56:48;25.20;99.90
53599;DHT22;39485;45.702;11.364;2023-06-22T05:59:13;25.20;99.90
53599;DHT22;39485;45.702;11.364;2023-06-22T06:01:39;25.40;99.90
53599;DHT22;39485;45.702;11.364;2023-06-22T06:04:05;25.40;99.90
53599;DHT22;39485;45.702;11.364;2023-06-22T06:06:33;25.50;99.90
53599;DHT22;39485;45.702;11.364;2023-06-22T06:09:00;25.50;99.90
53599;DHT22;39485;45.702;11.364;2023-06-22T06:11:26;25.50;99.90
53599;DHT22;39485;45.702;11.364;2023-06-22T06:13:51;25.60;99.90
53599;DHT22;39485;45.702;11.364;2023-06-22T06:16:17;25.60;99.90
53599;DHT22;39485;45.702;11.364;2023-06-22T06:18:43;25.70;99.90
53599;DHT22;39485;45.702;11.364;2023-06-22T06:21:08;25.80;99.90
53599;DHT22;39485;45.702;11.364;2023-06-22T06:23:34;26.00;99.90
53599;DHT22;39485;45.702;11.364;2023-06-22T06:26:00;26.00;99.90
53599;DHT22;39485;45.702;11.364;2023-06-22T06:28:26;26.10;99.90
53599;DHT22;39485;45.702;11.364;2023-06-22T06:30:52;26.10;99.90
53599;DHT22;39485;45.702;11.364;2023-06-22T06:33:19;26.20;99.90
53599;DHT22;39485;45.702;11.364;2023-06-22T06:35:46;26.30;99.90
53599;DHT22;39485;45.702;11.364;2023-06-22T06:38:12;26.30;99.90
53599;DHT22;39485;45.702;11.364;2023-06-22T06:40:37;26.30;99.90
53599;DHT22;39485;45.702;11.364;2023-06-22T06:43:03;26.40;99.90
53599;DHT22;39485;45.702;11.364;2023-06-22T06:45:28;26.40;99.90
53599;DHT22;39485;45.702;11.364;2023-06-22T06:47:56;26.50;99.90
53599;DHT22;39485;45.702;11.364;2023-06-22T06:50:22;26.50;99.90
53599;DHT22;39485;45.702;11.364;2023-06-22T06:52:48;26.60;99.90
53599;DHT22;39485;45.702;11.364;2023-06-22T06:55:15;26.70;99.90
53599;DHT22;39485;45.702;11.364;2023-06-22T06:57:42;26.70;99.90
53599;DHT22;39485;45.702;11.364;2023-06-22T07:00:10;26.80;99.90
53599;DHT22;39485;45.702;11.364;2023-06-22T07:02:41;26.90;99.90
53599;DHT22;39485;45.702;11.364;2023-06-22T07:05:07;27.00;99.90
53599;DHT22;39485;45.702;11.364;2023-06-22T07:07:33;27.10;99.90
53599;DHT22;39485;45.702;11.364;2023-06-22T07:09:59;27.10;99.90
53599;DHT22;39485;45.702;11.364;2023-06-22T07:12:25;27.20;99.90
53599;DHT22;39485;45.702;11.364;2023-06-22T07:14:52;27.30;99.90
53599;DHT22;39485;45.702;11.364;2023-06-22T07:17:18;27.30;99.90
53599;DHT22;39485;45.702;11.364;2023-06-22T07:19:44;27.40;99.90
53599;DHT22;39485;45.702;11.364;2023-06-22T07:22:10;27.40;99.90
53599;DHT22;39485;45.702;11.364;2023-06-22T07:24:35;27.50;99.90
53599;DHT22;39485;45.702;11.364;2023-06-22T07:27:02;27.50;99.90
53599;DHT22;39485;45.702;11.364;2023-06-22T07:29:29;27.50;99.90
53599;DHT22;39485;45.702;11.364;2023-06-22T07:31:55;27.60;99.90
53599;DHT22;39485;45.702;11.364;2023-06-22T07:34:22;27.60;99.90
53599;DHT22;39485;45.702;11.364;2023-06-22T07:36:48;27.60;99.90
53599;DHT22;39485;45.702;11.364;2023-06-22T07:39:13;27.70;99.90
53599;DHT22;39485;45.702;11.364;2023-06-22T07:41:40;27.70;99.90
53599;DHT22;39485;45.702;11.364;2023-06-22T07:44:06;27.80;99.90
53599;DHT22;39485;45.702;11.364;2023-06-22T07:46:32;27.80;99.90
53599;DHT22;39485;45.702;11.364;2023-06-22T07:48:58;27.80;99.90
53599;DHT22;39485;45.702;11.364;2023-06-22T07:51:25;27.90;99.90
53599;DHT22;39485;45.702;11.364;2023-06-22T07:53:51;27.90;99.90
53599;DHT22;39485;45.702;11.364;2023-06-22T07:56:16;28.00;99.90
53599;DHT22;39485;45.702;11.364;2023-06-22T07:58:46;28.00;99.90
53599;DHT22;39485;45.702;11.364;2023-06-22T08:01:13;28.00;99.90
53599;DHT22;39485;45.702;11.364;2023-06-22T08:03:39;28.10;99.90
53599;DHT22;39485;45.702;11.364;2023-06-22T08:06:05;28.10;99.90
53599;DHT22;39485;45.702;11.364;2023-06-22T08:08:31;28.10;99.90
53599;DHT22;39485;45.702;11.364;2023-06-22T08:10:57;28.10;99.90
53599;DHT22;39485;45.702;11.364;2023-06-22T08:13:23;28.10;99.90
53599;DHT22;39485;45.702;11.364;2023-06-22T08:15:49;28.20;99.90
53599;DHT22;39485;45.702;11.364;2023-06-22T08:18:14;28.30;99.90
53599;DHT22;39485;45.702;11.364;2023-06-22T08:20:42;28.40;99.90
53599;DHT22;39485;45.702;11.364;2023-06-22T08:23:07;28.40;99.90
53599;DHT22;39485;45.702;11.364;2023-06-22T08:25:36;28.40;99.90
53599;DHT22;39485;45.702;11.364;2023-06-22T08:28:03;28.40;99.90
53599;DHT22;39485;45.702;11.364;2023-06-22T08:30:28;28.40;99.90
53599;DHT22;39485;45.702;11.364;2023-06-22T08:32:54;28.40;99.90
53599;DHT22;39485;45.702;11.364;2023-06-22T08:35:24;28.50;99.90
53599;DHT22;39485;45.702;11.364;2023-06-22T08:37:50;28.40;99.90
53599;DHT22;39485;45.702;11.364;2023-06-22T08:40:20;28.40;99.90
53599;DHT22;39485;45.702;11.364;2023-06-22T08:42:46;28.40;99.90
53599;DHT22;39485;45.702;11.364;2023-06-22T08:45:12;28.50;99.90
53599;DHT22;39485;45.702;11.364;2023-06-22T08:47:39;28.60;99.90
53599;DHT22;39485;45.702;11.364;2023-06-22T08:50:06;28.70;99.90
53599;DHT22;39485;45.702;11.364;2023-06-22T08:52:33;28.80;99.90
53599;DHT22;39485;45.702;11.364;2023-06-22T08:54:58;28.90;99.90
53599;DHT22;39485;45.702;11.364;2023-06-22T08:57:24;29.00;99.90
53599;DHT22;39485;45.702;11.364;2023-06-22T08:59:50;29.00;99.90
53599;DHT22;39485;45.702;11.364;2023-06-22T09:02:17;29.10;99.90
53599;DHT22;39485;45.702;11.364;2023-06-22T09:04:47;29.20;99.90
53599;DHT22;39485;45.702;11.364;2023-06-22T09:07:14;29.30;99.90
53599;DHT22;39485;45.702;11.364;2023-06-22T09:09:39;29.40;99.90
53599;DHT22;39485;45.702;11.364;2023-06-22T09:12:05;29.30;99.90
53599;DHT22;39485;45.702;11.364;2023-06-22T09:14:31;29.40;99.90
53599;DHT22;39485;45.702;11.364;2023-06-22T09:16:57;29.50;99.90
53599;DHT22;39485;45.702;11.364;2023-06-22T09:19:22;29.60;99.90
53599;DHT22;39485;45.702;11.364;2023-06-22T09:21:48;29.60;99.90
53599;DHT22;39485;45.702;11.364;2023-06-22T09:24:14;29.70;99.90
53599;DHT22;39485;45.702;11.364;2023-06-22T09:26:40;29.90;99.90
53599;DHT22;39485;45.702;11.364;2023-06-22T09:29:06;29.90;99.90
53599;DHT22;39485;45.702;11.364;2023-06-22T09:31:31;30.00;99.90
53599;DHT22;39485;45.702;11.364;2023-06-22T09:33:57;30.00;99.90
53599;DHT22;39485;45.702;11.364;2023-06-22T09:36:23;30.00;99.90
53599;DHT22;39485;45.702;11.364;2023-06-22T09:38:49;30.00;99.90
53599;DHT22;39485;45.702;11.364;2023-06-22T09:41:21;30.00;99.90
53599;DHT22;39485;45.702;11.364;2023-06-22T09:43:47;30.00;99.90
53599;DHT22;39485;45.702;11.364;2023-06-22T09:46:16;30.10;99.90
53599;DHT22;39485;45.702;11.364;2023-06-22T09:48:42;30.10;99.90
53599;DHT22;39485;45.702;11.364;2023-06-22T09:51:08;30.20;99.90
53599;DHT22;39485;45.702;11.364;2023-06-22T09:53:34;30.20;99.90
53599;DHT22;39485;45.702;11.364;2023-06-22T09:56:03;30.20;99.90
53599;DHT22;39485;45.702;11.364;2023-06-22T09:58:29;30.20;99.90
53599;DHT22;39485;45.702;11.364;2023-06-22T10:00:54;30.20;99.90
53599;DHT22;39485;45.702;11.364;2023-06-22T10:03:20;30.20;99.90
53599;DHT22;39485;45.702;11.364;2023-06-22T10:05:46;30.10;99.90
53599;DHT22;39485;45.702;11.364;2023-06-22T10:08:12;30.10;99.90
53599;DHT22;39485;45.702;11.364;2023-06-22T10:10:38;30.20;99.90
53599;DHT22;39485;45.702;11.364;2023-06-22T10:13:08;30.20;99.90
53599;DHT22;39485;45.702;11.364;2023-06-22T10:15:37;30.30;99.90
53599;DHT22;39485;45.702;11.364;2023-06-22T10:18:04;30.50;99.90
53599;DHT22;39485;45.702;11.364;2023-06-22T10:20:30;30.60;99.90
53599;DHT22;39485;45.702;11.364;2023-06-22T10:22:55;30.70;99.90
53599;DHT22;39485;45.702;11.364;2023-06-22T10:25:22;30.70;99.90
53599;DHT22;39485;45.702;11.364;2023-06-22T10:27:48;30.80;99.90
53599;DHT22;39485;45.702;11.364;2023-06-22T10:30:14;30.90;99.90
53599;DHT22;39485;45.702;11.364;2023-06-22T10:32:41;30.90;99.90
53599;DHT22;39485;45.702;11.364;2023-06-22T10:35:08;31.00;99.90
53599;DHT22;39485;45.702;11.364;2023-06-22T10:37:36;31.00;99.90
53599;DHT22;39485;45.702;11.364;2023-06-22T10:40:02;31.00;99.90
53599;DHT22;39485;45.702;11.364;2023-06-22T10:42:29;31.00;99.90
53599;DHT22;39485;45.702;11.364;2023-06-22T10:44:55;31.00;99.90
53599;DHT22;39485;45.702;11.364;2023-06-22T10:47:21;31.00;99.90
53599;DHT22;39485;45.702;11.364;2023-06-22T10:49:46;31.00;99.90
53599;DHT22;39485;45.702;11.364;2023-06-22T10:52:12;31.00;99.90
53599;DHT22;39485;45.702;11.364;2023-06-22T10:54:38;31.00;99.90
53599;DHT22;39485;45.702;11.364;2023-06-22T10:57:04;31.10;99.90
53599;DHT22;39485;45.702;11.364;2023-06-22T10:59:30;31.00;99.90
53599;DHT22;39485;45.702;11.364;2023-06-22T11:01:56;31.10;99.90
53599;DHT22;39485;45.702;11.364;2023-06-22T11:04:23;31.10;99.90
53599;DHT22;39485;45.702;11.364;2023-06-22T11:06:49;31.10;99.90
53599;DHT22;39485;45.702;11.364;2023-06-22T11:09:15;31.20;99.90
53599;DHT22;39485;45.702;11.364;2023-06-22T11:11:50;31.20;99.40
53599;DHT22;39485;45.702;11.364;2023-06-22T11:14:18;31.20;99.80
53599;DHT22;39485;45.702;11.364;2023-06-22T11:16:44;31.20;99.10
53599;DHT22;39485;45.702;11.364;2023-06-22T11:19:10;31.20;99.30
53599;DHT22;39485;45.702;11.364;2023-06-22T11:21:35;31.30;99.50
53599;DHT22;39485;45.702;11.364;2023-06-22T11:24:01;31.30;99.10
53599;DHT22;39485;45.702;11.364;2023-06-22T11:26:27;31.40;99.30
53599;DHT22;39485;45.702;11.364;2023-06-22T11:28:53;31.40;99.20
53599;DHT22;39485;45.702;11.364;2023-06-22T11:31:19;31.50;99.30
53599;DHT22;39485;45.702;11.364;2023-06-22T11:33:44;31.50;98.80
53599;DHT22;39485;45.702;11.364;2023-06-22T11:36:11;31.50;98.80
53599;DHT22;39485;45.702;11.364;2023-06-22T11:38:37;31.60;98.70
53599;DHT22;39485;45.702;11.364;2023-06-22T11:41:08;31.60;97.80
53599;DHT22;39485;45.702;11.364;2023-06-22T11:43:34;31.50;97.60
53599;DHT22;39485;45.702;11.364;2023-06-22T11:46:04;31.60;97.60
53599;DHT22;39485;45.702;11.364;2023-06-22T11:48:30;31.60;97.80
53599;DHT22;39485;45.702;11.364;2023-06-22T11:50:56;31.60;97.10
53599;DHT22;39485;45.702;11.364;2023-06-22T11:53:23;31.60;97.00
53599;DHT22;39485;45.702;11.364;2023-06-22T11:55:49;31.60;96.90
53599;DHT22;39485;45.702;11.364;2023-06-22T11:58:15;31.70;96.90
53599;DHT22;39485;45.702;11.364;2023-06-22T12:00:41;31.70;96.70
53599;DHT22;39485;45.702;11.364;2023-06-22T12:03:07;31.70;96.40
53599;DHT22;39485;45.702;11.364;2023-06-22T12:05:33;31.70;96.10
53599;DHT22;39485;45.702;11.364;2023-06-22T12:07:59;31.80;96.10
53599;DHT22;39485;45.702;11.364;2023-06-22T12:10:26;31.80;95.90
53599;DHT22;39485;45.702;11.364;2023-06-22T12:12:54;31.90;95.80
53599;DHT22;39485;45.702;11.364;2023-06-22T12:15:19;32.00;95.60
53599;DHT22;39485;45.702;11.364;2023-06-22T12:17:45;32.00;95.50
53599;DHT22;39485;45.702;11.364;2023-06-22T12:20:11;32.00;95.40
53599;DHT22;39485;45.702;11.364;2023-06-22T12:22:37;32.00;95.50
53599;DHT22;39485;45.702;11.364;2023-06-22T12:25:03;32.10;95.40
53599;DHT22;39485;45.702;11.364;2023-06-22T12:27:29;32.10;94.90
53599;DHT22;39485;45.702;11.364;2023-06-22T12:29:58;32.10;94.90
53599;DHT22;39485;45.702;11.364;2023-06-22T12:32:23;32.20;95.10
53599;DHT22;39485;45.702;11.364;2023-06-22T12:34:50;32.20;94.90
53599;DHT22;39485;45.702;11.364;2023-06-22T12:37:15;32.20;94.30
53599;DHT22;39485;45.702;11.364;2023-06-22T12:39:41;32.20;94.20
53599;DHT22;39485;45.702;11.364;2023-06-22T12:42:07;32.20;94.20
53599;DHT22;39485;45.702;11.364;2023-06-22T12:44:35;32.30;94.20
53599;DHT22;39485;45.702;11.364;2023-06-22T12:47:00;32.30;93.60
53599;DHT22;39485;45.702;11.364;2023-06-22T12:49:26;32.30;93.40
53599;DHT22;39485;45.702;11.364;2023-06-22T12:51:52;32.40;93.10
53599;DHT22;39485;45.702;11.364;2023-06-22T12:54:17;32.40;93.20
53599;DHT22;39485;45.702;11.364;2023-06-22T12:56:43;32.40;92.90
53599;DHT22;39485;45.702;11.364;2023-06-22T12:59:12;32.40;92.80
53599;DHT22;39485;45.702;11.364;2023-06-22T13:01:38;32.50;93.00
53599;DHT22;39485;45.702;11.364;2023-06-22T13:04:04;32.40;92.50
53599;DHT22;39485;45.702;11.364;2023-06-22T13:06:30;32.40;92.10
53599;DHT22;39485;45.702;11.364;2023-06-22T13:08:55;32.50;92.20
53599;DHT22;39485;45.702;11.364;2023-06-22T13:11:21;32.50;92.00
53599;DHT22;39485;45.702;11.364;2023-06-22T13:13:47;32.50;91.70
53599;DHT22;39485;45.702;11.364;2023-06-22T13:16:13;32.50;91.60
53599;DHT22;39485;45.702;11.364;2023-06-22T13:18:38;32.50;91.40
53599;DHT22;39485;45.702;11.364;2023-06-22T13:21:04;32.40;91.20
53599;DHT22;39485;45.702;11.364;2023-06-22T13:23:30;32.40;91.00
53599;DHT22;39485;45.702;11.364;2023-06-22T13:25:58;32.40;90.90
53599;DHT22;39485;45.702;11.364;2023-06-22T13:28:23;32.30;90.70
53599;DHT22;39485;45.702;11.364;2023-06-22T13:30:49;32.30;90.90
53599;DHT22;39485;45.702;11.364;2023-06-22T13:33:15;32.30;90.80
53599;DHT22;39485;45.702;11.364;2023-06-22T13:35:40;32.30;90.60
53599;DHT22;39485;45.702;11.364;2023-06-22T13:38:08;32.30;90.60
53599;DHT22;39485;45.702;11.364;2023-06-22T13:40:35;32.30;90.40
53599;DHT22;39485;45.702;11.364;2023-06-22T13:43:00;32.30;90.00
53599;DHT22;39485;45.702;11.364;2023-06-22T13:45:26;32.20;90.00
53599;DHT22;39485;45.702;11.364;2023-06-22T13:47:52;32.10;89.50
53599;DHT22;39485;45.702;11.364;2023-06-22T13:50:18;32.10;89.90
53599;DHT22;39485;45.702;11.364;2023-06-22T13:52:44;32.10;90.30
53599;DHT22;39485;45.702;11.364;2023-06-22T13:55:09;32.10;90.40
53599;DHT22;39485;45.702;11.364;2023-06-22T13:57:35;32.10;90.60
53599;DHT22;39485;45.702;11.364;2023-06-22T14:00:03;32.20;90.50
53599;DHT22;39485;45.702;11.364;2023-06-22T14:02:30;32.10;90.60
53599;DHT22;39485;45.702;11.364;2023-06-22T14:04:56;32.20;90.70
53599;DHT22;39485;45.702;11.364;2023-06-22T14:07:22;32.20;90.70
53599;DHT22;39485;45.702;11.364;2023-06-22T14:09:49;32.30;90.50
53599;DHT22;39485;45.702;11.364;2023-06-22T14:12:15;32.30;90.60
53599;DHT22;39485;45.702;11.364;2023-06-22T14:14:43;32.30;90.60
53599;DHT22;39485;45.702;11.364;2023-06-22T14:17:09;32.30;90.10
53599;DHT22;39485;45.702;11.364;2023-06-22T14:19:35;32.20;89.70
53599;DHT22;39485;45.702;11.364;2023-06-22T14:22:01;32.20;90.10
53599;DHT22;39485;45.702;11.364;2023-06-22T14:24:27;32.10;90.20
53599;DHT22;39485;45.702;11.364;2023-06-22T14:26:54;32.20;90.10
53599;DHT22;39485;45.702;11.364;2023-06-22T14:29:23;32.10;90.00
53599;DHT22;39485;45.702;11.364;2023-06-22T14:31:49;32.10;90.00
53599;DHT22;39485;45.702;11.364;2023-06-22T14:34:15;32.10;89.90
53599;DHT22;39485;45.702;11.364;2023-06-22T14:36:41;32.10;90.20
53599;DHT22;39485;45.702;11.364;2023-06-22T14:39:08;32.10;90.10
53599;DHT22;39485;45.702;11.364;2023-06-22T14:41:33;32.10;90.20
53599;DHT22;39485;45.702;11.364;2023-06-22T14:43:59;32.10;90.00
53599;DHT22;39485;45.702;11.364;2023-06-22T14:46:25;32.10;90.20
53599;DHT22;39485;45.702;11.364;2023-06-22T14:48:50;32.10;90.40
53599;DHT22;39485;45.702;11.364;2023-06-22T14:51:16;32.10;90.20
53599;DHT22;39485;45.702;11.364;2023-06-22T14:53:43;32.10;90.10
53599;DHT22;39485;45.702;11.364;2023-06-22T14:56:09;32.10;89.60
53599;DHT22;39485;45.702;11.364;2023-06-22T14:58:35;32.10;89.60
53599;DHT22;39485;45.702;11.364;2023-06-22T15:01:02;32.10;90.00
53599;DHT22;39485;45.702;11.364;2023-06-22T15:03:28;32.10;89.50
53599;DHT22;39485;45.702;11.364;2023-06-22T15:05:56;32.20;89.40
53599;DHT22;39485;45.702;11.364;2023-06-22T15:08:22;32.10;89.20
53599;DHT22;39485;45.702;11.364;2023-06-22T15:10:47;32.20;89.60
53599;DHT22;39485;45.702;11.364;2023-06-22T15:13:13;32.20;89.00
53599;DHT22;39485;45.702;11.364;2023-06-22T15:15:39;32.20;88.40
53599;DHT22;39485;45.702;11.364;2023-06-22T15:18:05;32.20;88.40